Walum, North Dakota
Current Conditions -  °F | °C
As of 7:35 AM on Tuesday 21 Oct 2014 (Local Time) from KBAC Reporting Station
Clear Clear  
Wind Chill:   Ceiling: Unl
Heat Index:   Visibility: 10mi
Dew Point:   Wind: 12mph
Humidity: 100%   Direction: 150°SSE
Pressure: 29.98"   Gusts: NA
Location:  47.2843°N, 98.1073°W
Report Text: KBAC 211235Z AUTO 15010KT 10SM CLR 04/04 A2998 RMK AO2
Loading
Personal Weather Stations






























Interactive Weather Map
Tropical Storm Tracking
New forecast layout! Learn more

10-Day Weather Forecast

Advertisements
Track Severe Weather on mobile